Mishawaka, IN

7:40 PM EDT on October 30, 2014 (GMT -0400)
Old Reverewood | Change Station
CLOSE
Current Station
Personal Weather Station
Location: Mishawaka, IN
Elevation: 741 ft
Nearby Weather Stations
Active Advisory: Wind Advisory

Elev 741 ft 41.65 °N, 86.13 °W | Updated 9 minutes ago

Overcast
Overcast
49.5 °F
Feels Like 50 °F
N
0.0
Wind Variable Wind from NW
Gusts 0.0 mph

Today
High -- | Low -- °F
--% Chance of Precip.
Yesterday
High -- | Low -- °F
Precip. -- in
8:14 AM 6:41 PM
Waxing Crescent, 48% visible
Pressure 30.09 in
Visibility 10.0 miles
Clouds Overcast 8000 ft
Windchill 50 °F
Dew Point 37 °F
Humidity 62%
Rainfall 0.00 in
Snow Depth Not available.
UV 0.5 out of 12
Pollen .30 out of 12
Air Quality Not available.
Flu Activity Not available.
METAR KSBN 302254Z 23005KT 10SM OVC080 10/01 A3007 RMK AO2 SLP187 T01000006

More Conditions Fewer Conditions

Pressure 30.09 in
Visibility 10.0 miles
Clouds Overcast 8000 ft
Windchill 50 °F
Dew Point 37 °F
Humidity 62%
Rainfall 0.00 in
Snow Depth Not available.
UV 0.5 out of 12
Pollen .30 out of 12
Air Quality Not available.
Flu Activity Not available.
METAR KSBN 302254Z 23005KT 10SM OVC080 10/01 A3007 RMK AO2 SLP187 T01000006

More Conditions Fewer Conditions

10-Day Weather Forecast

Almanac

Astronomy

Oct. 30, 2014 Rise Set
Actual Time
Civil Twilight
Nautical Twilight
Astronomical Twilight
Moon
Length of Visible Light
Length of Day
Tomorrow will be .
, % of the Moon is Illuminated

Today's Extremes

State Highs State Lows

Community

WunderPhotos

Upload Photos

1,766,496 photos uploaded!

WunderBlogs® & News

Nearby

Air Quality

  Air Quality AQ Index Pollutant
Not available.

Snow Depth

Station Depth Elevation

Earthquake Activity

City Distance Mag. Time & Date
Minimum magnitude displayed is 2.5.

Coastal Water Temperatures

Place Temperature

Nearby Weather Stations